Time;durP1;ratioP1;P1;durP2;ratioP2;P2;SDS_P1;SDS_P2;PMS_P1;PMS_P2;Temp;Humidity;BMP_temperature;BMP_pressure;BME280_temperature;BME280_humidity;BME280_pressure;Samples;Min_cycle;Max_cycle;Signal;HPM_P1;HPM_P2
2021/04/10 00:01:52;;;;;;;9.35;2.80;;;8.60;74.60;;;;;;4978567;28;20114;-63
2021/04/10 00:04:21;;;;;;;8.73;2.80;;;8.60;74.20;;;;;;4982307;28;20051;-62
2021/04/10 00:06:53;;;;;;;9.27;3.95;;;8.60;75.40;;;;;;4983636;28;20114;-63
2021/04/10 00:09:20;;;;;;;12.07;3.45;;;8.50;74.10;;;;;;4981202;28;20066;-62
2021/04/10 00:11:49;;;;;;;6.32;3.20;;;8.50;74.00;;;;;;4983994;28;20141;-62
2021/04/10 00:14:17;;;;;;;6.93;3.53;;;8.40;73.50;;;;;;4982823;28;20055;-64
2021/04/10 00:16:45;;;;;;;6.88;3.53;;;8.60;73.90;;;;;;4981136;28;20051;-63
2021/04/10 00:19:13;;;;;;;6.90;3.75;;;8.70;73.20;;;;;;4981824;28;20058;-62
2021/04/10 00:21:41;;;;;;;8.70;3.15;;;8.70;73.80;;;;;;4982287;28;20043;-63
2021/04/10 00:24:10;;;;;;;6.45;3.60;;;8.60;74.00;;;;;;4981814;28;20365;-62
2021/04/10 00:26:37;;;;;;;7.90;3.60;;;8.60;74.00;;;;;;4982465;28;20053;-62
2021/04/10 00:29:05;;;;;;;5.30;2.53;;;8.50;73.30;;;;;;4983121;28;20111;-63
2021/04/10 00:31:34;;;;;;;7.13;3.35;;;8.50;73.00;;;;;;4982953;28;20065;-62
2021/04/10 00:34:05;;;;;;;5.57;2.75;;;8.50;73.90;;;;;;4982119;28;20104;-62
2021/04/10 00:36:32;;;;;;;5.55;2.88;;;8.70;74.20;;;;;;4982152;28;20050;-62
2021/04/10 00:39:03;;;;;;;7.95;2.45;;;8.70;73.40;;;;;;4982768;28;20059;-63
2021/04/10 00:41:31;;;;;;;7.63;3.00;;;8.70;74.40;;;;;;4972686;28;20039;-63
2021/04/10 00:43:59;;;;;;;8.27;3.17;;;8.80;74.30;;;;;;4978711;28;20380;-63
2021/04/10 00:46:28;;;;;;;7.18;3.35;;;8.90;73.90;;;;;;4980459;28;20519;-62
2021/04/10 00:48:55;;;;;;;6.13;2.63;;;8.90;74.10;;;;;;4979219;28;20112;-63
2021/04/10 00:51:23;;;;;;;6.75;3.00;;;8.80;75.00;;;;;;4979766;28;20246;-63
2021/04/10 00:53:51;;;;;;;8.02;3.80;;;8.60;75.70;;;;;;4980502;28;20051;-63
2021/04/10 00:56:19;;;;;;;6.57;2.97;;;8.60;75.90;;;;;;4980178;28;20117;-63
2021/04/10 00:58:47;;;;;;;6.60;3.28;;;8.50;76.60;;;;;;4980988;28;20096;-63
2021/04/10 01:01:14;;;;;;;8.60;3.20;;;8.60;75.70;;;;;;4982602;28;20051;-63
2021/04/10 01:03:43;;;;;;;5.38;2.75;;;8.60;75.70;;;;;;4981063;28;20054;-63
2021/04/10 01:06:11;;;;;;;4.57;2.53;;;8.60;74.90;;;;;;4978840;28;20084;-63
2021/04/10 01:08:39;;;;;;;7.03;2.90;;;8.70;74.70;;;;;;4979952;28;20074;-63
2021/04/10 01:11:16;;;;;;;8.77;3.20;;;8.70;74.80;;;;;;4979614;28;20330;-62
2021/04/10 01:13:53;;;;;;;7.18;2.65;;;8.60;75.30;;;;;;4981809;28;20039;-62
2021/04/10 01:16:25;;;;;;;6.90;3.17;;;8.70;74.80;;;;;;4977509;28;20280;-62
2021/04/10 01:19:00;;;;;;;5.38;3.05;;;8.70;74.40;;;;;;4981507;28;20069;-62
2021/04/10 01:21:39;;;;;;;6.75;2.85;;;8.60;74.80;;;;;;4978893;28;20509;-62
2021/04/10 01:24:33;;;;;;;9.13;3.70;;;8.70;74.40;;;;;;4978660;28;20051;-62
2021/04/10 01:27:33;;;;;;;6.94;3.14;;;8.70;73.90;;;;;;4791200;28;10000443;-62
2021/04/10 01:30:09;;;;;;;6.18;2.95;;;8.60;74.40;;;;;;3920925;28;10001443;-63
2021/04/10 01:32:46;;;;;;;6.78;2.95;;;8.40;75.80;;;;;;4961081;28;20075;-62
2021/04/10 01:35:16;;;;;;;8.18;3.10;;;8.40;75.50;;;;;;4974807;28;20121;-62
2021/04/10 01:37:48;;;;;;;;;;;8.40;75.40;;;;;;4962176;28;20047;-62
2021/04/10 01:40:17;;;;;;;5.90;2.60;;;8.40;75.50;;;;;;4969129;28;19927;-62
2021/04/10 01:42:48;;;;;;;8.05;2.97;;;8.60;75.50;;;;;;4961757;28;20050;-62
2021/04/10 01:45:18;;;;;;;5.60;2.53;;;8.50;74.90;;;;;;4953537;28;20067;-63
2021/04/10 01:47:49;;;;;;;7.65;3.20;;;8.60;75.10;;;;;;4961485;28;20331;-62
2021/04/10 01:50:18;;;;;;;9.15;3.47;;;8.60;75.20;;;;;;4968959;28;20078;-62
2021/04/10 01:52:47;;;;;;;7.13;2.80;;;8.50;75.50;;;;;;4962470;28;20059;-62
2021/04/10 01:55:17;;;;;;;6.83;3.40;;;8.30;76.00;;;;;;4961859;28;20058;-62
2021/04/10 01:57:51;;;;;;;6.70;3.58;;;8.40;76.20;;;;;;4962622;28;20047;-62
2021/04/10 02:00:26;;;;;;;12.02;3.90;;;8.50;76.60;;;;;;4940559;28;22027;-62
2021/04/10 02:02:59;;;;;;;7.20;3.33;;;8.50;77.60;;;;;;4962538;28;20050;-62
2021/04/10 02:05:28;;;;;;;8.80;3.92;;;8.30;78.20;;;;;;4960673;28;20305;-62
2021/04/10 02:08:25;;;;;;;5.82;2.95;;;8.30;79.30;;;;;;4950480;28;20063;-62
2021/04/10 02:10:56;;;;;;;7.53;3.15;;;8.20;81.10;;;;;;4966497;28;20103;-62
2021/04/10 02:13:45;;;;;;;5.85;2.95;;;8.30;79.60;;;;;;4961453;28;20308;-62
2021/04/10 02:16:21;;;;;;;9.20;3.40;;;8.10;81.60;;;;;;4992143;28;20092;-63
2021/04/10 02:18:52;;;;;;;7.15;3.25;;;8.10;84.10;;;;;;4952899;28;20053;-63
2021/04/10 02:21:25;;;;;;;7.65;3.25;;;8.00;86.00;;;;;;4961128;28;20126;-63
2021/04/10 02:23:53;;;;;;;7.40;4.40;;;8.00;84.20;;;;;;4959251;28;20081;-63
2021/04/10 02:26:26;;;;;;;6.38;2.97;;;8.00;84.00;;;;;;4971077;28;20604;-63
2021/04/10 02:28:57;;;;;;;5.13;2.40;;;7.80;85.60;;;;;;4960682;28;20105;-63
2021/04/10 02:31:31;;;;;;;8.20;2.70;;;7.80;86.50;;;;;;4959006;28;20063;-62
2021/04/10 02:34:05;;;;;;;6.20;2.63;;;7.70;86.50;;;;;;4968660;28;20050;-62
2021/04/10 02:36:36;;;;;;;4.15;1.73;;;7.70;87.80;;;;;;4960027;28;20381;-62
2021/04/10 02:39:03;;;;;;;6.20;2.58;;;7.70;88.20;;;;;;4958464;28;20043;-62
2021/04/10 02:41:32;;;;;;;11.10;2.53;;;7.60;88.40;;;;;;4959990;28;20125;-62
2021/04/10 02:44:04;;;;;;;5.50;2.22;;;7.70;88.80;;;;;;4957530;28;20047;-62
2021/04/10 02:46:37;;;;;;;4.10;2.40;;;7.70;87.50;;;;;;4959460;28;20055;-62
2021/04/10 02:49:10;;;;;;;7.20;2.63;;;7.80;87.60;;;;;;4957797;28;20051;-62
2021/04/10 02:51:48;;;;;;;9.57;2.97;;;7.90;87.40;;;;;;4959088;28;20039;-63
2021/04/10 02:54:20;;;;;;;5.32;2.45;;;7.80;87.60;;;;;;4957784;28;20043;-63
2021/04/10 02:56:54;;;;;;;5.75;3.55;;;7.90;87.40;;;;;;4934631;28;20055;-63
2021/04/10 02:59:22;;;;;;;5.28;2.45;;;7.90;87.90;;;;;;4959390;28;20062;-62
2021/04/10 03:01:52;;;;;;;7.22;2.63;;;8.00;87.60;;;;;;4954969;28;20053;-62
2021/04/10 03:04:20;;;;;;;4.55;2.80;;;8.00;87.80;;;;;;4957967;28;20066;-62
2021/04/10 03:06:48;;;;;;;8.95;2.80;;;8.00;87.80;;;;;;4959178;28;20200;-62
2021/04/10 03:09:16;;;;;;;8.15;2.95;;;8.00;87.60;;;;;;4958508;28;20053;-62
2021/04/10 03:11:43;;;;;;;6.15;3.05;;;8.00;88.00;;;;;;4958252;28;20062;-62
2021/04/10 03:14:11;;;;;;;7.72;3.10;;;7.80;89.40;;;;;;4958418;28;20098;-62
2021/04/10 03:16:42;;;;;;;5.60;3.38;;;7.70;89.90;;;;;;4960009;28;20047;-63
2021/04/10 03:19:17;;;;;;;6.70;3.22;;;7.70;90.20;;;;;;4956620;28;20437;-62
2021/04/10 03:21:51;;;;;;;7.78;3.35;;;7.70;90.00;;;;;;4959392;28;20069;-62
2021/04/10 03:24:18;;;;;;;14.20;3.28;;;7.70;89.80;;;;;;4959480;28;20035;-63
2021/04/10 03:26:46;;;;;;;6.82;3.20;;;7.70;89.70;;;;;;4949433;28;20046;-63
2021/04/10 03:29:21;;;;;;;6.15;3.08;;;7.70;88.90;;;;;;4958843;28;20067;-62
2021/04/10 03:31:50;;;;;;;6.95;2.90;;;7.70;89.40;;;;;;4960526;28;20417;-61
2021/04/10 03:34:20;;;;;;;8.38;4.07;;;7.90;89.10;;;;;;4960193;28;20047;-62
2021/04/10 03:36:48;;;;;;;7.68;4.53;;;7.80;89.30;;;;;;4955116;28;20055;-62
2021/04/10 03:39:17;;;;;;;7.57;2.90;;;7.70;89.40;;;;;;4961799;28;20067;-62
2021/04/10 03:41:52;;;;;;;5.45;3.30;;;7.70;90.80;;;;;;4964177;28;20043;-62
2021/04/10 03:44:21;;;;;;;7.28;3.28;;;7.70;90.40;;;;;;4962189;28;20334;-63
2021/04/10 03:46:48;;;;;;;7.35;3.33;;;7.60;90.20;;;;;;4963578;28;20254;-63
2021/04/10 03:49:15;;;;;;;6.72;3.00;;;7.70;90.70;;;;;;4963473;28;20043;-62
2021/04/10 03:51:43;;;;;;;7.97;3.35;;;7.70;90.90;;;;;;4963869;28;20059;-62
2021/04/10 03:54:11;;;;;;;7.55;2.58;;;7.70;91.00;;;;;;4962647;28;20099;-62
2021/04/10 03:56:41;;;;;;;6.55;3.05;;;7.70;91.00;;;;;;4963398;28;20043;-62
2021/04/10 03:59:16;;;;;;;6.13;2.45;;;7.70;89.90;;;;;;4962345;28;20051;-63
2021/04/10 04:01:51;;;;;;;6.85;2.67;;;7.70;89.40;;;;;;4960785;28;20112;-63
2021/04/10 04:04:19;;;;;;;5.68;2.95;;;7.80;90.00;;;;;;4961629;28;20058;-62
2021/04/10 04:06:47;;;;;;;5.35;2.85;;;7.80;89.80;;;;;;4963501;28;20058;-62
2021/04/10 04:09:14;;;;;;;5.57;3.00;;;7.70;90.70;;;;;;4963363;28;20054;-63
2021/04/10 04:11:42;;;;;;;8.35;3.05;;;7.70;91.60;;;;;;4963392;28;20243;-62
2021/04/10 04:14:09;;;;;;;8.25;3.03;;;7.70;91.30;;;;;;4954537;28;20071;-62
2021/04/10 04:16:36;;;;;;;6.35;3.00;;;7.70;91.30;;;;;;4964008;28;20346;-62
2021/04/10 04:19:06;;;;;;;5.43;2.78;;;7.70;91.10;;;;;;4962851;28;20081;-62
2021/04/10 04:21:33;;;;;;;6.05;2.92;;;7.70;91.20;;;;;;4963378;28;20473;-62
2021/04/10 04:24:04;;;;;;;5.78;3.08;;;7.70;91.50;;;;;;4963826;28;20114;-63
2021/04/10 04:26:31;;;;;;;6.15;2.97;;;7.70;91.30;;;;;;4962500;28;20699;-62
2021/04/10 04:28:58;;;;;;;7.40;2.90;;;7.70;90.60;;;;;;4962757;28;20066;-62
2021/04/10 04:31:25;;;;;;;7.38;2.97;;;7.80;90.40;;;;;;4960428;28;20404;-63
2021/04/10 04:33:52;;;;;;;7.22;3.30;;;7.70;90.60;;;;;;4962019;28;20339;-63
2021/04/10 04:36:19;;;;;;;6.30;2.85;;;7.60;91.10;;;;;;4962135;28;20360;-62
2021/04/10 04:38:46;;;;;;;7.45;2.97;;;7.70;90.70;;;;;;4960535;28;20355;-62
2021/04/10 04:41:14;;;;;;;5.43;3.15;;;7.60;91.30;;;;;;4961473;28;20434;-63
2021/04/10 04:43:43;;;;;;;7.25;3.17;;;7.60;91.40;;;;;;4961699;28;20050;-63
2021/04/10 04:46:11;;;;;;;7.82;3.28;;;7.60;91.20;;;;;;4961342;28;20075;-62
2021/04/10 04:48:38;;;;;;;8.73;3.22;;;7.70;91.80;;;;;;4959918;28;20396;-62
2021/04/10 04:51:06;;;;;;;7.55;2.95;;;7.70;91.50;;;;;;4975310;28;20063;-63
2021/04/10 04:53:33;;;;;;;6.53;3.75;;;7.70;91.60;;;;;;4962055;28;20047;-62
2021/04/10 04:56:00;;;;;;;7.25;3.28;;;7.70;91.70;;;;;;4960946;28;20270;-62
2021/04/10 04:58:32;;;;;;;8.55;3.65;;;7.80;92.00;;;;;;4960474;28;20476;-63
2021/04/10 05:00:59;;;;;;;7.40;2.80;;;7.80;91.60;;;;;;4958274;28;20051;-62
2021/04/10 05:03:26;;;;;;;7.60;2.97;;;7.80;91.60;;;;;;4959577;28;21121;-63
2021/04/10 05:05:53;;;;;;;10.18;3.47;;;7.80;91.10;;;;;;4960748;28;20121;-62
2021/04/10 05:08:19;;;;;;;8.27;3.38;;;7.90;91.10;;;;;;4960988;28;22776;-62
2021/04/10 05:10:46;;;;;;;8.30;2.97;;;8.00;90.50;;;;;;4960885;28;20061;-63
2021/04/10 05:13:13;;;;;;;13.40;4.80;;;8.00;90.20;;;;;;4960675;28;20085;-63
2021/04/10 05:15:43;;;;;;;12.63;4.38;;;7.80;91.00;;;;;;4961066;28;20315;-62
2021/04/10 05:18:11;;;;;;;;;;;7.70;91.10;;;;;;4961914;28;20054;-62
2021/04/10 05:20:37;;;;;;;6.07;2.67;;;7.70;91.20;;;;;;4962079;28;19957;-62
2021/04/10 05:23:04;;;;;;;7.75;3.30;;;7.90;90.80;;;;;;4962331;28;20115;-63
2021/04/10 05:25:31;;;;;;;11.38;3.90;;;7.70;91.40;;;;;;4962028;28;20063;-63
2021/04/10 05:27:58;;;;;;;7.47;3.63;;;7.70;91.30;;;;;;4962429;28;20058;-63
2021/04/10 05:30:26;;;;;;;8.38;3.47;;;7.70;91.80;;;;;;4963759;28;20426;-63
2021/04/10 05:32:54;;;;;;;10.57;4.03;;;7.80;91.60;;;;;;4948490;28;20054;-63
2021/04/10 05:35:21;;;;;;;10.00;4.20;;;7.80;91.50;;;;;;4945438;28;20059;-62
2021/04/10 05:37:48;;;;;;;8.23;3.83;;;7.90;91.80;;;;;;4991079;28;20061;-63
2021/04/10 05:40:15;;;;;;;8.55;4.18;;;7.80;91.90;;;;;;5040755;28;20258;-63
2021/04/10 05:42:43;;;;;;;8.32;3.58;;;8.00;91.90;;;;;;5043679;28;20101;-62
2021/04/10 05:45:11;;;;;;;7.60;3.95;;;8.10;91.30;;;;;;5043284;28;20131;-62
2021/04/10 05:47:39;;;;;;;8.70;4.00;;;8.10;90.80;;;;;;5043140;28;20052;-62
2021/04/10 05:50:08;;;;;;;7.38;3.30;;;8.10;90.80;;;;;;5043076;28;20421;-62
2021/04/10 05:52:35;;;;;;;4.83;2.77;;;8.20;90.80;;;;;;5042697;28;20332;-63
2021/04/10 05:55:10;;;;;;;7.25;3.30;;;8.20;90.70;;;;;;5041710;28;20041;-63
2021/04/10 05:57:37;;;;;;;5.10;3.10;;;8.20;90.20;;;;;;5041521;28;20076;-62
2021/04/10 06:00:08;;;;;;;6.47;3.35;;;8.30;90.20;;;;;;5039132;28;20103;-62
2021/04/10 06:02:39;;;;;;;6.60;3.30;;;8.20;90.20;;;;;;5042813;28;20045;-62
2021/04/10 06:05:10;;;;;;;8.25;3.35;;;8.20;90.50;;;;;;5041784;28;20045;-62
2021/04/10 06:07:40;;;;;;;7.75;3.42;;;8.20;91.40;;;;;;5041411;28;20049;-63
2021/04/10 06:10:09;;;;;;;6.28;3.20;;;8.20;91.50;;;;;;5042209;28;20366;-63
2021/04/10 06:12:36;;;;;;;5.80;3.05;;;8.20;91.70;;;;;;5041775;28;20061;-63
2021/04/10 06:15:04;;;;;;;7.63;3.67;;;8.30;91.20;;;;;;5042053;28;20113;-63
2021/04/10 06:17:31;;;;;;;6.53;2.97;;;8.40;90.60;;;;;;5042592;28;20077;-63
2021/04/10 06:19:58;;;;;;;6.63;3.08;;;8.30;91.20;;;;;;5071472;28;20068;-62
2021/04/10 06:22:25;;;;;;;7.63;3.28;;;8.20;91.50;;;;;;5039596;28;20045;-63
2021/04/10 06:24:52;;;;;;;7.18;3.45;;;8.30;91.80;;;;;;5039500;28;20400;-62
2021/04/10 06:27:19;;;;;;;8.90;4.10;;;8.30;91.70;;;;;;5039281;28;20104;-62
2021/04/10 06:29:46;;;;;;;13.65;4.72;;;8.30;91.60;;;;;;5039183;28;20218;-63
2021/04/10 06:32:13;;;;;;;8.98;4.10;;;8.30;91.90;;;;;;5039109;28;20110;-62
2021/04/10 06:34:40;;;;;;;6.50;3.42;;;8.30;92.00;;;;;;5040275;28;20065;-63
2021/04/10 06:37:07;;;;;;;7.70;3.95;;;8.40;91.80;;;;;;5038924;28;20329;-61
2021/04/10 06:39:34;;;;;;;6.38;3.25;;;8.50;91.50;;;;;;5040055;28;20048;-62
2021/04/10 06:42:04;;;;;;;7.70;3.83;;;8.40;91.40;;;;;;5038988;28;20072;-62
2021/04/10 06:44:31;;;;;;;8.07;3.80;;;8.40;91.30;;;;;;5039772;28;20156;-62
2021/04/10 06:47:03;;;;;;;8.25;4.15;;;8.50;91.80;;;;;;5039575;28;20049;-63
2021/04/10 06:49:31;;;;;;;13.70;4.60;;;8.50;91.20;;;;;;5038877;28;20321;-62
2021/04/10 06:51:58;;;;;;;9.50;4.82;;;8.40;91.40;;;;;;5039278;28;20045;-63
2021/04/10 06:54:31;;;;;;;11.32;4.05;;;8.50;91.70;;;;;;5039198;28;20553;-63
2021/04/10 06:57:06;;;;;;;8.35;4.03;;;8.60;91.50;;;;;;5040481;28;20221;-62
2021/04/10 06:59:44;;;;;;;6.68;4.30;;;8.80;90.70;;;;;;5040240;28;20395;-63
2021/04/10 07:02:12;;;;;;;10.93;5.22;;;8.90;90.40;;;;;;5036026;28;20049;-63
2021/04/10 07:04:39;;;;;;;10.77;4.97;;;9.00;90.40;;;;;;5039338;28;20053;-63
2021/04/10 07:07:06;;;;;;;10.35;4.32;;;9.00;90.20;;;;;;5040356;28;20083;-63
2021/04/10 07:09:34;;;;;;;10.82;4.85;;;9.20;90.20;;;;;;5043460;28;20290;-63
2021/04/10 07:12:05;;;;;;;10.63;4.97;;;9.30;89.60;;;;;;5045610;28;20171;-63
2021/04/10 07:14:32;;;;;;;8.30;4.35;;;9.40;88.70;;;;;;5045124;28;20520;-63
2021/04/10 07:16:59;;;;;;;10.63;4.72;;;9.40;89.40;;;;;;5045488;28;20072;-62
2021/04/10 07:19:27;;;;;;;8.32;4.70;;;9.50;88.90;;;;;;5044777;28;20577;-63
2021/04/10 07:22:05;;;;;;;8.57;4.60;;;9.60;88.40;;;;;;5045504;28;20116;-62
2021/04/10 07:24:40;;;;;;;7.32;4.07;;;9.60;89.30;;;;;;5035295;28;21073;-62
2021/04/10 07:27:10;;;;;;;8.25;4.53;;;9.60;88.50;;;;;;5045894;28;20049;-62
2021/04/10 07:29:39;;;;;;;10.32;5.05;;;9.60;88.80;;;;;;5044583;28;20056;-62
2021/04/10 07:32:27;;;;;;;8.65;4.32;;;9.60;89.10;;;;;;5045284;28;20124;-61
2021/04/10 07:34:55;;;;;;;10.20;4.65;;;9.40;88.30;;;;;;5051210;28;20492;-61
2021/04/10 07:37:36;;;;;;;12.32;5.03;;;9.40;88.80;;;;;;5041474;28;20053;-63
2021/04/10 07:40:06;;;;;;;8.35;4.95;;;9.50;88.30;;;;;;5044602;28;20064;-62
2021/04/10 07:42:42;;;;;;;10.90;6.22;;;9.40;88.90;;;;;;5044936;28;20049;-62
2021/04/10 07:45:24;;;;;;;9.55;5.47;;;9.50;88.70;;;;;;5043617;28;20053;-63
2021/04/10 07:48:00;;;;;;;10.93;6.55;;;9.60;88.00;;;;;;5044450;28;20076;-63
2021/04/10 07:50:33;;;;;;;11.35;5.75;;;9.70;87.70;;;;;;5044082;28;20602;-62
2021/04/10 07:53:19;;;;;;;10.25;4.78;;;9.70;88.10;;;;;;5043269;28;20079;-62
2021/04/10 07:55:46;;;;;;;10.88;5.40;;;9.90;88.00;;;;;;5015210;28;20348;-63
2021/04/10 07:58:28;;;;;;;9.20;5.22;;;10.00;87.90;;;;;;5043400;28;20037;-63
2021/04/10 08:00:57;;;;;;;10.65;4.60;;;10.10;87.10;;;;;;5040622;28;20349;-63
2021/04/10 08:03:27;;;;;;;11.93;5.72;;;10.00;86.70;;;;;;5043952;28;20056;-62
2021/04/10 08:05:54;;;;;;;15.43;7.55;;;10.00;87.10;;;;;;5043494;28;20068;-62
2021/04/10 08:08:25;;;;;;;7.63;4.10;;;10.00;86.80;;;;;;5037071;28;20061;-63
2021/04/10 08:11:00;;;;;;;9.45;4.85;;;10.10;86.40;;;;;;5043171;28;20041;-62
2021/04/10 08:13:30;;;;;;;7.68;4.80;;;10.10;86.60;;;;;;5041995;28;20458;-62
2021/04/10 08:16:11;;;;;;;8.02;4.40;;;10.30;86.40;;;;;;5042559;28;20041;-63
2021/04/10 08:18:44;;;;;;;9.25;5.00;;;10.40;87.20;;;;;;5042028;28;20978;-62
2021/04/10 08:21:12;;;;;;;6.50;4.07;;;10.40;87.20;;;;;;4993849;28;20050;-63
2021/04/10 08:23:38;;;;;;;10.15;4.32;;;10.30;87.00;;;;;;4993560;28;20042;-63
2021/04/10 08:26:06;;;;;;;10.57;4.90;;;10.30;86.20;;;;;;4994565;28;20121;-62
2021/04/10 08:28:37;;;;;;;8.38;4.53;;;10.10;85.60;;;;;;4993867;28;20267;-62
2021/04/10 08:31:07;;;;;;;8.10;4.43;;;10.20;86.60;;;;;;4990931;28;20053;-62
2021/04/10 08:33:35;;;;;;;11.67;5.10;;;10.20;86.50;;;;;;4992881;28;20097;-62
2021/04/10 08:36:05;;;;;;;10.18;5.55;;;10.40;86.10;;;;;;4993972;28;20373;-63
2021/04/10 08:38:34;;;;;;;9.98;5.13;;;10.60;85.50;;;;;;4995320;28;20285;-61
2021/04/10 08:41:10;;;;;;;11.30;5.88;;;10.80;84.70;;;;;;4993687;28;20240;-62
2021/04/10 08:43:51;;;;;;;9.20;4.78;;;10.90;84.60;;;;;;4994698;28;20034;-62
2021/04/10 08:46:20;;;;;;;9.40;5.28;;;10.80;83.80;;;;;;4994881;28;20051;-62
2021/04/10 08:48:50;;;;;;;9.93;5.00;;;10.70;84.90;;;;;;4992689;28;20070;-62
2021/04/10 08:51:18;;;;;;;11.73;5.20;;;10.60;85.00;;;;;;4992541;28;20085;-62
2021/04/10 08:53:47;;;;;;;9.35;4.68;;;10.50;85.10;;;;;;4994116;28;20058;-62
2021/04/10 08:56:20;;;;;;;7.65;5.50;;;10.40;85.40;;;;;;4994433;28;20046;-62
2021/04/10 08:58:49;;;;;;;10.82;5.65;;;10.40;84.90;;;;;;5010917;28;20064;-62
2021/04/10 09:01:22;;;;;;;8.50;5.20;;;10.40;86.10;;;;;;5004702;28;20054;-62
2021/04/10 09:03:51;;;;;;;9.07;5.20;;;10.30;86.80;;;;;;5016809;28;20054;-62
2021/04/10 09:06:49;;;;;;;10.43;4.90;;;10.30;87.30;;;;;;5003241;28;20053;-62
2021/04/10 09:09:29;;;;;;;11.13;5.43;;;10.30;87.40;;;;;;5013963;28;20057;-62
2021/04/10 09:12:22;;;;;;;11.35;5.45;;;10.30;87.90;;;;;;5006990;28;20066;-62
2021/04/10 09:14:51;;;;;;;12.38;4.53;;;10.20;87.60;;;;;;4998161;28;20249;-63
2021/04/10 09:17:19;;;;;;;8.88;5.20;;;10.30;88.20;;;;;;5001005;28;20101;-63
2021/04/10 09:19:55;;;;;;;8.80;4.90;;;10.40;88.10;;;;;;5054863;28;20137;-62
2021/04/10 09:22:26;;;;;;;8.65;5.25;;;10.30;87.40;;;;;;5052791;28;20053;-62
2021/04/10 09:24:58;;;;;;;7.97;4.43;;;10.30;87.50;;;;;;5084910;28;20056;-62
2021/04/10 09:27:28;;;;;;;11.68;4.70;;;10.30;87.80;;;;;;5016058;28;20655;-63
2021/04/10 09:29:58;;;;;;;10.07;4.68;;;10.40;87.70;;;;;;5049498;28;20048;-63
2021/04/10 09:32:35;;;;;;;10.63;5.32;;;10.30;88.10;;;;;;5015106;28;20265;-62
2021/04/10 09:35:12;;;;;;;10.70;4.53;;;10.30;88.10;;;;;;5049215;28;20052;-62
2021/04/10 09:37:49;;;;;;;7.63;4.75;;;10.20;88.30;;;;;;5047087;28;20112;-62
2021/04/10 09:40:20;;;;;;;9.25;4.10;;;10.10;88.50;;;;;;5048094;28;20061;-62
2021/04/10 09:42:49;;;;;;;9.05;4.30;;;10.10;87.90;;;;;;5043659;28;20060;-63
2021/04/10 09:45:20;;;;;;;7.73;4.30;;;10.20;88.90;;;;;;5042610;28;20156;-62
2021/04/10 09:48:21;;;;;;;9.07;4.03;;;10.10;89.10;;;;;;5044343;28;20288;-63
2021/04/10 09:51:16;;;;;;;7.68;3.63;;;10.10;89.20;;;;;;5014499;28;20402;-63
2021/04/10 09:53:53;;;;;;;9.60;4.05;;;10.10;89.00;;;;;;4961741;28;20242;-63
2021/04/10 09:56:21;;;;;;;7.40;3.97;;;10.00;89.20;;;;;;4960607;28;20055;-62
2021/04/10 09:58:57;;;;;;;10.57;4.72;;;10.00;89.10;;;;;;4960371;28;20316;-62
2021/04/10 10:01:30;;;;;;;8.73;4.43;;;10.00;89.30;;;;;;4957240;28;20047;-63
2021/04/10 10:03:58;;;;;;;8.60;4.18;;;9.90;89.20;;;;;;4961791;28;20047;-63
2021/04/10 10:06:30;;;;;;;7.75;3.83;;;9.90;89.80;;;;;;4960376;28;20271;-63
2021/04/10 10:08:59;;;;;;;8.95;3.33;;;9.80;90.10;;;;;;4961959;28;20049;-62
2021/04/10 10:11:26;;;;;;;7.35;3.88;;;9.80;90.30;;;;;;4958938;28;20298;-63
2021/04/10 10:13:56;;;;;;;9.55;4.03;;;9.80;90.40;;;;;;4960524;28;20078;-63
2021/04/10 10:16:30;;;;;;;8.57;4.00;;;9.80;90.20;;;;;;4959565;28;20077;-63
2021/04/10 10:18:58;;;;;;;8.95;4.50;;;9.90;90.20;;;;;;4961003;28;20059;-63
2021/04/10 10:21:26;;;;;;;11.07;3.90;;;9.90;90.50;;;;;;4958928;28;20917;-62
2021/04/10 10:23:55;;;;;;;11.30;4.90;;;9.90;90.50;;;;;;4959331;28;20211;-62
2021/04/10 10:26:24;;;;;;;8.30;4.57;;;9.90;90.50;;;;;;4982332;28;20115;-62
2021/04/10 10:28:53;;;;;;;13.77;4.95;;;10.10;89.70;;;;;;4958647;28;20384;-61
2021/04/10 10:31:23;;;;;;;8.82;4.82;;;10.10;89.80;;;;;;4959743;28;20063;-63
2021/04/10 10:33:52;;;;;;;11.70;5.22;;;10.00;88.70;;;;;;4959810;28;20058;-63
2021/04/10 10:36:21;;;;;;;12.27;5.70;;;9.80;89.20;;;;;;4961509;28;20051;-63
2021/04/10 10:38:49;;;;;;;13.75;5.82;;;9.80;89.40;;;;;;4959284;28;20047;-62
2021/04/10 10:41:18;;;;;;;11.07;5.97;;;9.90;89.40;;;;;;4961789;28;20059;-62
2021/04/10 10:43:46;;;;;;;13.65;6.55;;;10.00;89.30;;;;;;4959725;28;20108;-62
2021/04/10 10:46:18;;;;;;;12.18;6.05;;;10.10;88.70;;;;;;4960676;28;20389;-62
2021/04/10 10:48:46;;;;;;;13.05;6.40;;;10.10;89.10;;;;;;4962340;28;20071;-63
2021/04/10 10:51:16;;;;;;;12.80;6.68;;;10.20;89.50;;;;;;4961322;28;20061;-63
2021/04/10 10:53:45;;;;;;;12.20;6.85;;;10.20;90.20;;;;;;4962178;28;20055;-62
2021/04/10 10:56:14;;;;;;;17.42;7.30;;;10.20;90.40;;;;;;4960683;28;20051;-63
2021/04/10 10:58:45;;;;;;;15.15;7.20;;;10.20;90.20;;;;;;4962636;28;20291;-62
2021/04/10 11:01:15;;;;;;;12.05;5.55;;;10.20;90.60;;;;;;4957156;28;20059;-62
2021/04/10 11:03:49;;;;;;;11.88;4.95;;;10.20;90.50;;;;;;4961407;28;20128;-63
2021/04/10 11:06:19;;;;;;;10.95;5.00;;;10.40;89.50;;;;;;4960569;28;20073;-62
2021/04/10 11:08:47;;;;;;;8.13;4.63;;;10.40;89.20;;;;;;4962419;28;20073;-62
2021/04/10 11:11:16;;;;;;;5.32;2.78;;;10.40;89.10;;;;;;4961932;28;20055;-63
2021/04/10 11:13:45;;;;;;;9.27;3.15;;;10.50;86.80;;;;;;4961622;28;20051;-62
2021/04/10 11:16:14;;;;;;;10.50;2.70;;;10.60;87.10;;;;;;4960615;28;20059;-62
2021/04/10 11:18:41;;;;;;;9.50;2.90;;;10.60;85.70;;;;;;4943251;28;20057;-62
2021/04/10 11:21:23;;;;;;;6.22;2.50;;;10.90;85.40;;;;;;4960981;28;20211;-62
2021/04/10 11:24:11;;;;;;;7.18;2.67;;;11.00;84.80;;;;;;4960500;28;20047;-62
2021/04/10 11:26:48;;;;;;;6.30;2.08;;;11.20;84.70;;;;;;5009374;28;20041;-62
2021/04/10 11:29:29;;;;;;;6.85;3.20;;;11.20;84.30;;;;;;5041750;28;20161;-63
2021/04/10 11:32:22;;;;;;;5.05;1.98;;;11.30;85.10;;;;;;5042258;28;20049;-62
2021/04/10 11:34:57;;;;;;;5.68;2.10;;;11.50;84.00;;;;;;5041549;28;20541;-62
2021/04/10 11:37:42;;;;;;;7.38;3.40;;;11.50;82.40;;;;;;5056224;28;20061;-62
2021/04/10 11:40:10;;;;;;;4.88;1.60;;;11.40;81.50;;;;;;5041225;28;20075;-61
2021/04/10 11:42:41;;;;;;;6.07;1.67;;;11.30;82.60;;;;;;5046453;28;20049;-62
2021/04/10 11:45:10;;;;;;;3.08;1.55;;;11.50;82.30;;;;;;5040934;28;20041;-63
2021/04/10 11:47:38;;;;;;;1.88;1.20;;;11.40;82.10;;;;;;5048335;28;20061;-63
2021/04/10 11:50:11;;;;;;;2.42;1.17;;;11.60;81.50;;;;;;5039748;28;20045;-63
2021/04/10 11:52:40;;;;;;;3.63;1.77;;;11.90;80.00;;;;;;5039307;28;20069;-63
2021/04/10 11:55:11;;;;;;;4.47;1.20;;;11.90;79.90;;;;;;5038598;28;20049;-63
2021/04/10 11:57:39;;;;;;;4.47;1.60;;;11.70;80.00;;;;;;5042293;28;20057;-64
2021/04/10 12:00:12;;;;;;;2.50;1.25;;;11.90;80.30;;;;;;5038491;28;20283;-63
2021/04/10 12:02:40;;;;;;;3.92;1.38;;;11.80;79.20;;;;;;5058910;28;20052;-64
2021/04/10 12:05:25;;;;;;;2.83;1.40;;;12.00;79.10;;;;;;5043336;28;20041;-63
2021/04/10 12:08:10;;;;;;;5.30;1.52;;;11.70;79.40;;;;;;5042388;28;20904;-63
2021/04/10 12:10:41;;;;;;;4.05;1.55;;;11.70;79.70;;;;;;4946413;28;21200;-64
2021/04/10 12:13:08;;;;;;;3.83;1.42;;;11.70;80.20;;;;;;4960720;28;20047;-63
2021/04/10 12:15:36;;;;;;;6.32;1.95;;;11.70;79.80;;;;;;4962079;28;20111;-63
2021/04/10 12:18:04;;;;;;;4.45;1.55;;;11.70;80.90;;;;;;4961878;28;20300;-63
2021/04/10 12:20:31;;;;;;;3.60;1.73;;;11.50;80.60;;;;;;4961535;28;20183;-63
2021/04/10 12:22:58;;;;;;;4.15;1.23;;;11.60;80.50;;;;;;4959283;28;20057;-62
2021/04/10 12:25:26;;;;;;;5.55;2.13;;;11.50;79.90;;;;;;4964408;28;20371;-62
2021/04/10 12:27:53;;;;;;;2.92;1.38;;;11.40;80.30;;;;;;5025181;28;20329;-63
2021/04/10 12:30:20;;;;;;;3.47;1.65;;;11.20;81.40;;;;;;5042347;28;20365;-62
2021/04/10 12:32:47;;;;;;;2.45;1.48;;;11.20;80.70;;;;;;5042662;28;20116;-63
2021/04/10 12:35:15;;;;;;;5.32;1.77;;;11.10;81.80;;;;;;5043063;28;20048;-63
2021/04/10 12:37:42;;;;;;;3.40;1.70;;;11.10;82.20;;;;;;5045230;28;20045;-63
2021/04/10 12:40:10;;;;;;;3.53;1.98;;;11.30;81.90;;;;;;5049269;28;20079;-63
2021/04/10 12:42:38;;;;;;;5.18;1.85;;;11.30;81.80;;;;;;5045958;28;20100;-62
2021/04/10 12:45:09;;;;;;;2.45;1.67;;;11.30;81.70;;;;;;5042824;28;20199;-63
2021/04/10 12:47:36;;;;;;;4.00;1.77;;;11.20;82.30;;;;;;5042956;28;20225;-63
2021/04/10 12:50:04;;;;;;;4.25;1.75;;;11.20;82.00;;;;;;5043739;28;20112;-62
2021/04/10 12:52:31;;;;;;;3.20;1.77;;;11.20;82.60;;;;;;5043486;28;20160;-63
2021/04/10 12:54:58;;;;;;;2.95;1.60;;;11.50;82.30;;;;;;5043597;28;20053;-63
2021/04/10 12:57:25;;;;;;;6.05;1.67;;;11.40;81.80;;;;;;5043908;28;20238;-63
2021/04/10 12:59:53;;;;;;;3.90;2.08;;;11.50;82.50;;;;;;5044249;28;20053;-63
2021/04/10 13:02:20;;;;;;;4.82;2.25;;;11.70;81.50;;;;;;5047646;28;20062;-62
2021/04/10 13:04:47;;;;;;;7.40;2.38;;;11.70;80.60;;;;;;5034207;28;20057;-63
2021/04/10 13:07:14;;;;;;;3.85;2.10;;;12.00;81.80;;;;;;5043183;28;20067;-63
2021/04/10 13:09:44;;;;;;;5.25;2.00;;;12.30;80.30;;;;;;5042330;28;20098;-63